Aérodrome :
LOGIN :

S'inscrire | Disclaimer

   EN    FR    IT 

 










Légende :    VFR   VFR Marginal   IFR   IFR Intensif   IFR Très Intensif
Visi : 
Plafond : 
>= 8 km
>= 3000ft
5 à 8 km
1000 à 3000 ft
1500m à 5 km
500 à 1000 ft
800 à 1500m
200 à 500 ft
< 800m
< 200 ft
Symboles :   Orages  Brouillard  Fortes neiges  Fortes précipitations  Vent > 20 kt
SIGMETs :   Divers  Orages  Givrage  Turbulence  Onde Orograph.  Cendres Volcan.







- Altitude de l'aérodrome : 370 ft


EBBE - Beauvechain AB

DERNIER METAR :
  • 152025Z AUTO VRB02KT 9999 NCD 23/09 Q1015 BLU

METARs EXPIRÉS :
  • 151955Z AUTO 02003KT 9999 FEW085/// 23/09 Q1015 BLU
  • 151925Z AUTO 04003KT 9999 FEW085/// 23/10 Q1015 BLU
  • 151855Z AUTO 03003KT 9999 NCD 24/10 Q1014 BLU
  • 151825Z AUTO 02005KT 9999 NCD 25/09 Q1014 BLU
  • 151755Z AUTO 01003KT 9999 NCD 26/08 Q1014 BLU

TAF TAF EBBE
Valide du 15 à 13h jusqu'au 15 à 22h UTC


151141Z 1513/1522 05007KT 9999 FEW250
TEMPO 1516/1522 FEW070
Pas de NOTAMs connus pour ce terrain.



MET'MAP, la Météo Aéronautique d'un coup d'oeil ! - Copyright ORBIFLY Décembre 2007 - Disclaimer

ORBIFLY MET'MAP TEAM :

Programmation & Développement : Alexandra Zaïnal
Conception & Développement : Baudouin d'Aumeries
Co-Programmation & Développement : Marc-Olivier Méhu
Soutien technique & logistique : Manuel Goepfert

Contact : metmap@orbifly.com




SOURCES & CREDITS :

   NOAA